Slotergracht — PDBP — position and weather

sailwx.info

Track history (hours):
 
Tides and Currents Weather Stations Pressure Air Temp Water Temp Dewpoint Dewpoint Depression Visibility Wind Speed Wind Dir Waves Ship Positions

Slotergracht

Last reported at 2020-May-26 10:01 UTC. Time now 2020-May-27 02:04 UTC.
Position N 60°39' E 019°04'.

Length 168 m; beam 25 m.

Type: Cargo ship. MMSI: 246456000.

Date/timePositionNaut miles runAvg speedWind from/ knotsBaromVisibWave heightAir tempDewpointWater temp
2020-May-26 10:01N 60°39' E 019°04'3316.3
2020-May-26 08:01N 60°07' E 019°14'816.8
2020-May-26 07:31N 60°00' E 019°25'2516.6
2020-May-26 06:01N 59°41' E 019°57'16916.1
2020-May-25 19:30N 59°54' E 025°32'6315.7
2020-May-25 15:31N 60°09' E 027°34'2914.4
2020-May-25 13:31N 60°03' E 028°31'4512.7
2020-May-25 10:00N 59°56' E 029°59'7 7.5
2020-May-25 09:00N 59°53' E 030°13'1 0.4
2020-May-25 07:30N 59°53' E 030°14'0 0.0
2020-May-25 06:00N 59°53' E 030°14'0 0.0
2020-May-25 03:30N 59°53' E 030°14'0 0.0
2020-May-25 02:00N 59°53' E 030°14'0 0.0
2020-May-25 01:00N 59°53' E 030°14'0 0.0
2020-May-25 00:30N 59°53' E 030°14'0 0.0
2020-May-24 16:29N 59°53' E 030°14'0 0.0
2020-May-24 15:59N 59°53' E 030°14'34 6.8
2020-May-24 11:01N 60°02' E 029°08'4 7.7
2020-May-24 10:31N 60°02' E 029°01'8 8.4
2020-May-24 09:31N 60°02' E 028°44'4 9.0
2020-May-24 09:01N 60°02' E 028°35'18 8.8
2020-May-24 07:01N 60°09' E 028°02'21 8.3
2020-May-24 04:31N 60°03' E 027°22'4 8.9
2020-May-24 04:00N 60°01' E 027°14'8 8.5
2020-May-24 03:00N 59°58' E 026°58'510.5
2020-May-24 02:31N 59°59' E 026°48'7411.5
2020-May-23 20:01N 59°43' E 024°23'1111.4
2020-May-23 19:00N 59°39' E 024°02'4511.9
2020-May-23 15:16N 59°25' E 022°38'2714.1
2020-May-23 13:19N 59°08' E 021°56'1011.6
2020-May-23 12:27N 59°01' E 021°43'3212.5
2020-May-23 09:54N 58°31' E 021°23'17713.4
2020-May-22 20:37N 55°43' E 019°36'213.2
2020-May-22 20:30N 55°42' E 019°35'3313.1
2020-May-22 18:00N 55°11' E 019°16'4412.6
2020-May-22 14:30N 54°32' E 018°40'5 4.7
2020-May-22 13:29N 54°32' E 018°31'0 0.0
2020-May-22 11:56N 54°32' E 018°31'0 0.0
2020-May-22 10:29N 54°32' E 018°31'0 0.0
2020-May-22 09:59N 54°32' E 018°31'0 0.0
2020-May-22 08:28N 54°32' E 018°31'0 0.0
2020-May-22 05:58N 54°32' E 018°31'0 0.0
2020-May-22 05:25N 54°32' E 018°31'0 0.0
2020-May-22 04:58N 54°32' E 018°31'0 0.0
2020-May-21 23:58N 54°32' E 018°31'0 0.0
2020-May-21 21:58N 54°32' E 018°31'0 0.0
2020-May-21 19:28N 54°32' E 018°31'0 0.0
2020-May-21 18:28N 54°32' E 018°31'0 0.0
2020-May-21 17:28N 54°32' E 018°31'0 0.0
2020-May-21 16:28N 54°32' E 018°31'0 0.0
2020-May-21 12:28N 54°32' E 018°31'0 0.0
2020-May-21 11:28N 54°32' E 018°31'0 0.0
2020-May-21 03:28N 54°32' E 018°31'0 0.0
2020-May-21 02:58N 54°32' E 018°31'0 0.0
2020-May-21 01:28N 54°32' E 018°31'0 0.0
2020-May-20 22:58N 54°32' E 018°31'0 0.0
2020-May-20 21:58N 54°32' E 018°31'0 0.0
2020-May-20 21:00N 54°32' E 018°31'0 0.0
2020-May-20 19:27N 54°32' E 018°31'0 0.0
2020-May-20 18:57N 54°32' E 018°31'0 0.0
2020-May-20 17:30N 54°32' E 018°31'0 0.0
2020-May-20 17:00N 54°32' E 018°31'0 0.0
2020-May-20 16:30N 54°32' E 018°31'16 4.6
2020-May-20 13:00N 54°40' E 018°56'34 9.6
2020-May-20 09:30N 54°57' E 018°06'1914.2
2020-May-20 08:11N 54°55' E 017°34'7414.1
2020-May-20 02:57N 54°41' E 015°29'8013.9
2020-May-19 21:13N 54°45' E 013°11'1014.0
2020-May-19 20:30N 54°45' E 012°53'713.5
2020-May-19 20:01N 54°44' E 012°42'714.8
2020-May-19 19:30N 54°40' E 012°31'2513.0
2020-May-19 17:34N 54°24' E 011°57'2314.6
2020-May-19 15:59N 54°32' E 011°20'816.6
2020-May-19 15:30N 54°36' E 011°08'815.8
2020-May-19 15:00N 54°40' E 010°56'2013.2
2020-May-19 13:30N 55°00' E 011°01'1514.5
2020-May-19 12:30N 55°14' E 011°05'13313.3
2020-May-19 02:31N 57°27' E 011°25'714.7
2020-May-19 02:01N 57°32' E 011°15'714.7
2020-May-19 01:30N 57°37' E 011°05'2114.1
2020-May-19 00:00N 57°47' E 010°30'2315.3
2020-May-18 22:30N 57°46' E 009°47'815.6
2020-May-18 22:00N 57°45' E 009°32'817.0
2020-May-18 21:30N 57°44' E 009°17'917.3
2020-May-18 21:00N 57°44' E 009°01'1616.4
2020-May-18 20:00N 57°42' E 008°30'2516.6
2020-May-18 18:30N 57°41' E 007°43'6415.9
2020-May-18 14:30N 57°48' E 005°44'816.0
2020-May-18 14:00N 57°49' E 005°30'815.8
2020-May-18 13:30N 57°51' E 005°15'7215.8
2020-May-18 08:56N 58°04' E 003°01'18613.9
2020-May-17 19:30N 58°42' W 002°47'816.2
2020-May-17 19:00N 58°43' W 003°02'2315.5
2020-May-17 17:30N 58°43' W 003°47'1515.4
2020-May-17 16:30N 58°43' W 004°17'3814.2
2020-May-17 13:51N 58°42' W 005°29'1813.3
2020-May-17 12:30N 58°41' W 006°03'713.2
2020-May-17 12:00N 58°40' W 006°16'  
Track history (hours):
 
Tides and Currents Weather Stations Pressure Air Temp Water Temp Dewpoint Dewpoint Depression Visibility Wind Speed Wind Dir Waves Ship Positions

Slotergracht

Last reported at 2020-May-26 10:01 UTC. Time now 2020-May-27 02:04 UTC.
Position N 60°39' E 019°04'.

Length 168 m; beam 25 m.

Type: Cargo ship. MMSI: 246456000.

Date/timePositionNaut miles runAvg speedWind from/ knotsBaromVisibWave heightAir tempDewpointWater temp
2020-May-26 10:01N 60°39' E 019°04'3316.3
2020-May-26 08:01N 60°07' E 019°14'816.8
2020-May-26 07:31N 60°00' E 019°25'2516.6
2020-May-26 06:01N 59°41' E 019°57'16916.1
2020-May-25 19:30N 59°54' E 025°32'6315.7
2020-May-25 15:31N 60°09' E 027°34'2914.4
2020-May-25 13:31N 60°03' E 028°31'4512.7
2020-May-25 10:00N 59°56' E 029°59'7 7.5
2020-May-25 09:00N 59°53' E 030°13'1 0.4
2020-May-25 07:30N 59°53' E 030°14'0 0.0
2020-May-25 06:00N 59°53' E 030°14'0 0.0
2020-May-25 03:30N 59°53' E 030°14'0 0.0
2020-May-25 02:00N 59°53' E 030°14'0 0.0
2020-May-25 01:00N 59°53' E 030°14'0 0.0
2020-May-25 00:30N 59°53' E 030°14'0 0.0
2020-May-24 16:29N 59°53' E 030°14'0 0.0
2020-May-24 15:59N 59°53' E 030°14'34 6.8
2020-May-24 11:01N 60°02' E 029°08'4 7.7
2020-May-24 10:31N 60°02' E 029°01'8 8.4
2020-May-24 09:31N 60°02' E 028°44'4 9.0
2020-May-24 09:01N 60°02' E 028°35'18 8.8
2020-May-24 07:01N 60°09' E 028°02'21 8.3
2020-May-24 04:31N 60°03' E 027°22'4 8.9
2020-May-24 04:00N 60°01' E 027°14'8 8.5
2020-May-24 03:00N 59°58' E 026°58'510.5
2020-May-24 02:31N 59°59' E 026°48'7411.5
2020-May-23 20:01N 59°43' E 024°23'1111.4
2020-May-23 19:00N 59°39' E 024°02'4511.9
2020-May-23 15:16N 59°25' E 022°38'2714.1
2020-May-23 13:19N 59°08' E 021°56'1011.6
2020-May-23 12:27N 59°01' E 021°43'3212.5
2020-May-23 09:54N 58°31' E 021°23'17713.4
2020-May-22 20:37N 55°43' E 019°36'213.2
2020-May-22 20:30N 55°42' E 019°35'3313.1
2020-May-22 18:00N 55°11' E 019°16'4412.6
2020-May-22 14:30N 54°32' E 018°40'5 4.7
2020-May-22 13:29N 54°32' E 018°31'0 0.0
2020-May-22 11:56N 54°32' E 018°31'0 0.0
2020-May-22 10:29N 54°32' E 018°31'0 0.0
2020-May-22 09:59N 54°32' E 018°31'0 0.0
2020-May-22 08:28N 54°32' E 018°31'0 0.0
2020-May-22 05:58N 54°32' E 018°31'0 0.0
2020-May-22 05:25N 54°32' E 018°31'0 0.0
2020-May-22 04:58N 54°32' E 018°31'0 0.0
2020-May-21 23:58N 54°32' E 018°31'0 0.0
2020-May-21 21:58N 54°32' E 018°31'0 0.0
2020-May-21 19:28N 54°32' E 018°31'0 0.0
2020-May-21 18:28N 54°32' E 018°31'0 0.0
2020-May-21 17:28N 54°32' E 018°31'0 0.0
2020-May-21 16:28N 54°32' E 018°31'0 0.0
2020-May-21 12:28N 54°32' E 018°31'0 0.0
2020-May-21 11:28N 54°32' E 018°31'0 0.0
2020-May-21 03:28N 54°32' E 018°31'0 0.0
2020-May-21 02:58N 54°32' E 018°31'0 0.0
2020-May-21 01:28N 54°32' E 018°31'0 0.0
2020-May-20 22:58N 54°32' E 018°31'0 0.0
2020-May-20 21:58N 54°32' E 018°31'0 0.0
2020-May-20 21:00N 54°32' E 018°31'0 0.0
2020-May-20 19:27N 54°32' E 018°31'0 0.0
2020-May-20 18:57N 54°32' E 018°31'0 0.0
2020-May-20 17:30N 54°32' E 018°31'0 0.0
2020-May-20 17:00N 54°32' E 018°31'0 0.0
2020-May-20 16:30N 54°32' E 018°31'16 4.6
2020-May-20 13:00N 54°40' E 018°56'34 9.6
2020-May-20 09:30N 54°57' E 018°06'1914.2
2020-May-20 08:11N 54°55' E 017°34'7414.1
2020-May-20 02:57N 54°41' E 015°29'8013.9
2020-May-19 21:13N 54°45' E 013°11'1014.0
2020-May-19 20:30N 54°45' E 012°53'713.5
2020-May-19 20:01N 54°44' E 012°42'714.8
2020-May-19 19:30N 54°40' E 012°31'2513.0
2020-May-19 17:34N 54°24' E 011°57'2314.6
2020-May-19 15:59N 54°32' E 011°20'816.6
2020-May-19 15:30N 54°36' E 011°08'815.8
2020-May-19 15:00N 54°40' E 010°56'2013.2
2020-May-19 13:30N 55°00' E 011°01'1514.5
2020-May-19 12:30N 55°14' E 011°05'13313.3
2020-May-19 02:31N 57°27' E 011°25'714.7
2020-May-19 02:01N 57°32' E 011°15'714.7
2020-May-19 01:30N 57°37' E 011°05'2114.1
2020-May-19 00:00N 57°47' E 010°30'2315.3
2020-May-18 22:30N 57°46' E 009°47'815.6
2020-May-18 22:00N 57°45' E 009°32'817.0
2020-May-18 21:30N 57°44' E 009°17'917.3
2020-May-18 21:00N 57°44' E 009°01'1616.4
2020-May-18 20:00N 57°42' E 008°30'2516.6
2020-May-18 18:30N 57°41' E 007°43'6415.9
2020-May-18 14:30N 57°48' E 005°44'816.0
2020-May-18 14:00N 57°49' E 005°30'815.8
2020-May-18 13:30N 57°51' E 005°15'7215.8
2020-May-18 08:56N 58°04' E 003°01'18613.9
2020-May-17 19:30N 58°42' W 002°47'816.2
2020-May-17 19:00N 58°43' W 003°02'2315.5
2020-May-17 17:30N 58°43' W 003°47'1515.4
2020-May-17 16:30N 58°43' W 004°17'3814.2
2020-May-17 13:51N 58°42' W 005°29'1813.3
2020-May-17 12:30N 58°41' W 006°03'713.2
2020-May-17 12:00N 58°40' W 006°16'  

Dump ship's entire track history